createdAt,value
2022-09-26T00:01:11.073Z,14.39
2022-09-26T00:03:45.155Z,14.34
2022-09-26T00:06:18.317Z,14.32
2022-09-26T00:08:51.232Z,14.24
2022-09-26T00:11:25.757Z,14.30
2022-09-26T00:14:00.441Z,14.30
2022-09-26T00:16:33.032Z,14.33
2022-09-26T00:19:06.667Z,14.29
2022-09-26T00:21:39.362Z,14.25
2022-09-26T00:24:11.804Z,14.27
2022-09-26T00:26:44.337Z,14.31
2022-09-26T00:29:17.398Z,14.32
2022-09-26T00:31:49.679Z,14.30
2022-09-26T00:34:22.110Z,14.30
2022-09-26T00:36:54.778Z,14.24
2022-09-26T00:39:27.048Z,14.29
2022-09-26T00:41:59.296Z,14.18
2022-09-26T00:44:45.235Z,14.12
2022-09-26T00:47:26.811Z,14.18
2022-09-26T00:50:02.532Z,14.17
2022-09-26T00:52:38.691Z,14.07
2022-09-26T00:55:18.043Z,14.00
2022-09-26T00:57:54.814Z,14.07
2022-09-26T01:00:27.809Z,14.01
2022-09-26T01:03:00.911Z,14.13
2022-09-26T01:05:37.083Z,14.14
2022-09-26T01:08:10.818Z,14.18
2022-09-26T01:10:45.418Z,14.11
2022-09-26T01:13:17.770Z,14.16
2022-09-26T01:15:50.773Z,14.21
2022-09-26T01:18:23.205Z,14.26
2022-09-26T01:21:06.190Z,14.29
2022-09-26T01:24:15.983Z,14.32
2022-09-26T01:27:13.753Z,14.34
2022-09-26T01:30:11.776Z,14.34
2022-09-26T01:33:27.184Z,14.39
2022-09-26T01:36:28.783Z,14.29
2022-09-26T01:39:13.594Z,14.42
2022-09-26T01:41:56.150Z,14.48
2022-09-26T01:44:34.473Z,14.51
2022-09-26T01:47:14.840Z,14.54
2022-09-26T01:49:54.451Z,14.70
2022-09-26T01:52:34.250Z,14.72
2022-09-26T01:55:11.447Z,14.76
2022-09-26T01:57:48.535Z,14.79
2022-09-26T02:00:21.154Z,14.80
2022-09-26T02:02:57.625Z,14.84
2022-09-26T02:05:32.943Z,14.93
2022-09-26T02:08:09.959Z,14.85
2022-09-26T02:10:46.374Z,14.85
2022-09-26T02:13:23.634Z,14.81
2022-09-26T02:16:01.494Z,14.86
2022-09-26T02:18:40.794Z,14.93
2022-09-26T02:21:17.715Z,14.94
2022-09-26T02:23:52.044Z,14.98
2022-09-26T02:26:24.701Z,15.00
2022-09-26T02:28:57.550Z,14.90
2022-09-26T02:31:35.687Z,14.85
2022-09-26T02:34:09.138Z,14.89
2022-09-26T02:36:41.831Z,14.95
2022-09-26T02:39:14.248Z,15.01
2022-09-26T02:42:29.771Z,14.99
2022-09-26T02:45:20.351Z,14.98
2022-09-26T02:48:20.047Z,15.09
2022-09-26T02:51:07.499Z,15.07
2022-09-26T02:54:14.090Z,14.89
2022-09-26T02:57:09.902Z,14.92
2022-09-26T02:59:52.688Z,14.92
2022-09-26T03:02:34.427Z,14.85
2022-09-26T03:05:23.343Z,14.84
2022-09-26T03:07:59.328Z,14.82
2022-09-26T03:10:35.219Z,14.61
2022-09-26T03:13:10.795Z,14.57
2022-09-26T03:15:48.427Z,14.71
2022-09-26T03:18:25.511Z,14.68
2022-09-26T03:20:57.963Z,14.76
2022-09-26T03:23:31.364Z,14.88
2022-09-26T03:26:11.332Z,14.84
2022-09-26T03:28:55.518Z,14.86
2022-09-26T03:31:29.047Z,14.82
2022-09-26T03:34:10.934Z,14.92
2022-09-26T03:36:45.251Z,14.93
2022-09-26T03:39:19.133Z,14.95
2022-09-26T03:41:57.518Z,15.08
2022-09-26T03:44:34.571Z,15.14
2022-09-26T03:47:09.969Z,15.11
2022-09-26T03:49:46.644Z,15.03
2022-09-26T03:52:19.071Z,15.12
2022-09-26T03:54:55.077Z,15.07
2022-09-26T03:57:27.452Z,15.01
2022-09-26T04:00:10.168Z,15.09
2022-09-26T04:02:52.362Z,15.14
2022-09-26T04:05:37.674Z,15.06
2022-09-26T04:08:10.044Z,15.20
2022-09-26T04:10:44.204Z,15.21
2022-09-26T04:13:39.691Z,15.25
2022-09-26T04:16:09.306Z,15.24
2022-09-26T04:18:41.842Z,15.23
2022-09-26T04:21:15.168Z,15.21
2022-09-26T04:23:48.875Z,15.32
2022-09-26T04:26:24.570Z,15.32
2022-09-26T04:28:58.387Z,15.36
2022-09-26T04:31:50.948Z,15.37
2022-09-26T04:34:27.477Z,15.29
2022-09-26T04:37:00.567Z,15.33
2022-09-26T04:39:35.262Z,15.35
2022-09-26T04:42:08.276Z,15.37
2022-09-26T04:44:41.132Z,15.25
2022-09-26T04:47:13.472Z,15.22
2022-09-26T04:50:15.063Z,15.22
2022-09-26T04:52:47.630Z,15.12
2022-09-26T04:55:20.111Z,15.16
2022-09-26T04:57:53.068Z,15.20
2022-09-26T05:00:26.167Z,15.08
2022-09-26T05:03:00.695Z,15.14
2022-09-26T05:05:33.093Z,15.14
2022-09-26T05:08:05.510Z,15.15
2022-09-26T05:10:37.837Z,15.17
2022-09-26T05:13:10.876Z,15.16
2022-09-26T05:15:43.122Z,15.16
2022-09-26T05:18:16.155Z,15.18
2022-09-26T05:20:50.172Z,15.19
2022-09-26T05:23:44.975Z,15.21
2022-09-26T05:26:22.751Z,15.26
2022-09-26T05:29:05.330Z,15.25
2022-09-26T05:31:49.649Z,15.37
2022-09-26T05:34:25.379Z,15.46
2022-09-26T05:36:59.420Z,15.65
2022-09-26T05:40:01.156Z,15.77
2022-09-26T05:42:35.579Z,15.86
2022-09-26T05:45:09.771Z,15.67
2022-09-26T05:47:42.058Z,15.81
2022-09-26T05:50:15.394Z,15.89
2022-09-26T05:52:47.688Z,15.99
2022-09-26T05:55:28.443Z,15.86
2022-09-26T05:58:19.606Z,15.91
2022-09-26T06:01:24.958Z,16.09
2022-09-26T06:04:06.163Z,16.08
2022-09-26T06:06:48.364Z,16.32
2022-09-26T06:09:22.843Z,16.47
2022-09-26T06:12:13.601Z,16.45
2022-09-26T06:14:46.067Z,16.58
2022-09-26T06:17:19.052Z,16.70
2022-09-26T06:19:51.424Z,16.86
2022-09-26T06:22:26.376Z,16.91
2022-09-26T06:24:59.143Z,17.00
2022-09-26T06:27:32.167Z,17.25
2022-09-26T06:30:06.585Z,17.36
2022-09-26T06:32:40.539Z,17.43
2022-09-26T06:35:25.922Z,17.39
2022-09-26T06:38:13.696Z,17.51
2022-09-26T06:40:46.646Z,17.65
2022-09-26T06:43:18.982Z,17.85
2022-09-26T06:46:09.770Z,18.02
2022-09-26T06:49:00.852Z,18.08
2022-09-26T06:51:51.202Z,18.22
2022-09-26T06:54:23.715Z,18.15
2022-09-26T06:56:56.259Z,18.28
2022-09-26T06:59:28.589Z,18.21
2022-09-26T07:02:16.285Z,18.42
2022-09-26T07:05:16.750Z,18.55
2022-09-26T07:07:57.783Z,18.58
2022-09-26T07:10:35.399Z,18.71
2022-09-26T07:13:10.295Z,18.79
2022-09-26T07:15:44.913Z,18.95
2022-09-26T07:18:31.064Z,19.02
2022-09-26T07:21:08.880Z,19.01
2022-09-26T07:24:01.823Z,19.03
2022-09-26T07:26:34.239Z,19.13
2022-09-26T07:29:08.197Z,19.08
2022-09-26T07:31:40.743Z,19.08
2022-09-26T07:34:24.299Z,19.19
2022-09-26T07:36:58.871Z,19.14
2022-09-26T07:39:31.165Z,19.02
2022-09-26T07:42:04.632Z,18.84
2022-09-26T07:47:50.617Z,19.03
2022-09-26T07:50:58.911Z,18.99
2022-09-26T07:53:48.555Z,19.27
2022-09-26T07:56:44.303Z,19.31
2022-09-26T07:59:43.838Z,19.52
2022-09-26T08:02:46.176Z,19.71
2022-09-26T08:05:20.232Z,19.72
2022-09-26T08:07:53.490Z,19.49
2022-09-26T08:10:45.988Z,19.70
2022-09-26T08:13:38.535Z,19.67
2022-09-26T08:16:11.659Z,19.52
2022-09-26T08:18:48.653Z,19.72
2022-09-26T08:21:22.262Z,20.05
2022-09-26T08:23:56.992Z,20.22
2022-09-26T08:26:50.252Z,20.45
2022-09-26T08:29:31.408Z,20.58
2022-09-26T08:32:04.547Z,20.59
2022-09-26T08:34:40.272Z,20.66
2022-09-26T08:37:31.470Z,20.49
2022-09-26T08:40:31.655Z,20.82
2022-09-26T08:43:47.203Z,20.75
2022-09-26T08:46:49.936Z,20.66
2022-09-26T08:49:59.231Z,21.06
2022-09-26T08:52:38.667Z,20.69
2022-09-26T08:55:15.813Z,20.70
2022-09-26T08:57:52.806Z,21.05
2022-09-26T09:00:30.411Z,21.23
2022-09-26T09:03:20.670Z,21.31
2022-09-26T09:05:59.003Z,21.68
2022-09-26T09:08:37.089Z,21.91
2022-09-26T09:11:50.701Z,21.98
2022-09-26T09:14:40.627Z,22.23
2022-09-26T09:17:41.905Z,21.84
2022-09-26T09:20:38.707Z,22.03
2022-09-26T09:23:50.158Z,21.59
2022-09-26T09:29:49.363Z,21.41
2022-09-26T09:32:48.754Z,21.36
2022-09-26T09:35:37.647Z,21.15
2022-09-26T09:38:22.540Z,20.92
2022-09-26T09:41:16.830Z,20.71
2022-09-26T09:43:53.755Z,20.66
2022-09-26T09:46:28.388Z,20.57
2022-09-26T09:49:17.211Z,20.44
2022-09-26T09:52:04.601Z,20.93
2022-09-26T09:54:48.280Z,21.21
2022-09-26T09:57:40.143Z,21.53
2022-09-26T10:00:16.673Z,21.62
2022-09-26T10:03:04.970Z,21.74
2022-09-26T10:05:44.556Z,21.68
2022-09-26T10:08:30.610Z,21.98
2022-09-26T10:11:23.400Z,21.96
2022-09-26T10:14:06.559Z,22.19
2022-09-26T10:17:17.422Z,22.10
2022-09-26T10:20:05.112Z,22.18
2022-09-26T10:22:44.775Z,22.39
2022-09-26T10:25:26.679Z,22.31
2022-09-26T10:28:04.032Z,21.78
2022-09-26T10:30:49.310Z,21.44
2022-09-26T10:33:26.931Z,21.40
2022-09-26T10:36:11.772Z,21.79
2022-09-26T10:39:14.800Z,21.89
2022-09-26T10:41:48.807Z,22.25
2022-09-26T10:44:23.855Z,22.09
2022-09-26T10:47:16.790Z,22.03
2022-09-26T10:50:11.799Z,22.08
2022-09-26T10:53:07.667Z,22.20
2022-09-26T10:55:47.854Z,22.06
2022-09-26T10:58:23.332Z,22.25
2022-09-26T11:01:00.451Z,22.29
2022-09-26T11:03:41.150Z,22.44
2022-09-26T11:06:33.305Z,22.54
2022-09-26T11:09:30.567Z,22.75
2022-09-26T11:12:24.547Z,22.99
2022-09-26T11:15:00.294Z,22.66
2022-09-26T11:17:44.599Z,22.93
2022-09-26T11:20:27.115Z,22.75
2022-09-26T11:23:07.123Z,23.15
2022-09-26T11:25:57.593Z,22.92
2022-09-26T11:28:35.503Z,23.22
2022-09-26T11:31:40.508Z,23.15
2022-09-26T11:34:35.934Z,23.19
2022-09-26T11:37:30.200Z,23.35
2022-09-26T11:40:29.909Z,23.05
2022-09-26T11:43:18.406Z,23.59
2022-09-26T11:46:14.442Z,23.45
2022-09-26T11:49:30.572Z,23.48
2022-09-26T11:52:37.127Z,23.31
2022-09-26T11:55:18.239Z,23.63
2022-09-26T11:58:03.706Z,23.68
2022-09-26T12:00:46.643Z,23.89
2022-09-26T12:03:39.347Z,23.82
2022-09-26T12:06:22.340Z,23.66
2022-09-26T12:09:11.571Z,23.60
2022-09-26T12:11:52.917Z,23.44
2022-09-26T12:14:41.182Z,23.58
2022-09-26T12:17:20.823Z,23.71
2022-09-26T12:20:03.621Z,23.41
2022-09-26T12:22:43.477Z,23.00
2022-09-26T12:25:35.378Z,22.95
2022-09-26T12:28:24.591Z,22.71
2022-09-26T12:31:08.933Z,22.65
2022-09-26T12:34:00.527Z,22.73
2022-09-26T12:36:47.100Z,22.68
2022-09-26T12:39:47.599Z,22.40
2022-09-26T12:42:33.508Z,22.55
2022-09-26T12:45:27.590Z,22.55
2022-09-26T12:48:19.041Z,22.73
2022-09-26T12:51:09.023Z,22.58
2022-09-26T12:54:07.536Z,22.80
2022-09-26T12:56:47.787Z,22.59
2022-09-26T12:59:38.703Z,22.56
2022-09-26T13:02:32.880Z,22.22
2022-09-26T13:05:37.815Z,22.08
2022-09-26T13:08:16.183Z,22.17
2022-09-26T13:11:04.617Z,22.18
2022-09-26T13:14:17.794Z,22.10
2022-09-26T13:17:05.523Z,22.05
2022-09-26T13:19:43.565Z,21.85
2022-09-26T13:22:26.670Z,22.05
2022-09-26T13:25:06.674Z,22.09
2022-09-26T13:27:43.798Z,22.24
2022-09-26T13:30:19.064Z,22.25
2022-09-26T13:33:00.156Z,22.21
2022-09-26T13:35:36.148Z,22.07
2022-09-26T13:38:28.992Z,22.16
2022-09-26T13:41:08.868Z,22.05
2022-09-26T13:43:53.608Z,22.10
2022-09-26T13:46:35.385Z,21.97
2022-09-26T13:49:33.293Z,22.19
2022-09-26T13:52:17.227Z,22.24
2022-09-26T13:55:01.184Z,22.32
2022-09-26T13:57:38.994Z,22.31
2022-09-26T14:00:48.263Z,22.08
2022-09-26T14:03:37.481Z,22.00
2022-09-26T14:06:28.510Z,22.24
2022-09-26T14:09:23.246Z,22.05
2022-09-26T14:12:30.509Z,21.96
2022-09-26T14:15:20.111Z,21.62
2022-09-26T14:18:14.693Z,21.35
2022-09-26T14:20:57.261Z,21.36
2022-09-26T14:23:41.149Z,21.22
2022-09-26T14:26:17.917Z,21.25
2022-09-26T14:28:53.408Z,21.22
2022-09-26T14:31:57.588Z,21.18
2022-09-26T14:34:37.113Z,21.39
2022-09-26T14:37:39.527Z,21.34
2022-09-26T14:40:33.058Z,21.43
2022-09-26T14:43:36.654Z,21.35
2022-09-26T14:46:17.903Z,21.41
2022-09-26T14:48:56.823Z,21.27
2022-09-26T14:51:32.143Z,21.45
2022-09-26T14:54:08.199Z,21.27
2022-09-26T14:56:44.603Z,21.37
2022-09-26T14:59:39.451Z,21.27
2022-09-26T15:02:25.198Z,21.15
2022-09-26T15:05:04.227Z,21.21
2022-09-26T15:07:43.623Z,21.18
2022-09-26T15:10:21.378Z,21.16
2022-09-26T15:13:00.718Z,20.91
2022-09-26T15:15:39.062Z,20.90
2022-09-26T15:18:17.389Z,20.80
2022-09-26T15:20:54.191Z,20.87
2022-09-26T15:23:30.711Z,20.79
2022-09-26T15:26:03.668Z,20.71
2022-09-26T15:28:38.223Z,20.66
2022-09-26T15:31:23.092Z,20.60
2022-09-26T15:34:00.338Z,20.57
2022-09-26T15:36:35.639Z,20.45
2022-09-26T15:39:37.658Z,20.46
2022-09-26T15:42:46.506Z,20.59
2022-09-26T15:45:29.285Z,20.50
2022-09-26T15:48:03.519Z,20.55
2022-09-26T15:50:41.082Z,20.38
2022-09-26T15:53:23.779Z,20.16
2022-09-26T15:56:01.498Z,20.17
2022-09-26T15:58:37.027Z,20.29
2022-09-26T16:01:14.762Z,20.13
2022-09-26T16:03:54.957Z,20.07
2022-09-26T16:06:31.371Z,20.08
2022-09-26T16:09:16.434Z,20.01
2022-09-26T16:11:52.703Z,20.05
2022-09-26T16:14:30.901Z,20.11
2022-09-26T16:17:13.221Z,19.91
2022-09-26T16:19:48.005Z,19.95
2022-09-26T16:22:28.739Z,19.90
2022-09-26T16:25:19.520Z,19.94
2022-09-26T16:27:59.411Z,19.88
2022-09-26T16:30:44.524Z,19.77
2022-09-26T16:33:28.102Z,19.59
2022-09-26T16:36:14.384Z,19.57
2022-09-26T16:38:55.592Z,19.50
2022-09-26T16:41:59.908Z,19.35
2022-09-26T16:44:35.370Z,19.57
2022-09-26T16:47:32.815Z,19.28
2022-09-26T16:50:26.373Z,19.35
2022-09-26T16:53:01.690Z,19.32
2022-09-26T16:55:35.658Z,19.28
2022-09-26T16:58:12.688Z,19.26
2022-09-26T17:01:03.985Z,19.29
2022-09-26T17:03:40.336Z,19.12
2022-09-26T17:06:12.712Z,19.09
2022-09-26T17:08:45.033Z,19.07
2022-09-26T17:11:17.482Z,18.84
2022-09-26T17:13:50.001Z,18.96
2022-09-26T17:16:23.203Z,18.98
2022-09-26T17:18:56.327Z,19.03
2022-09-26T17:21:28.683Z,18.95
2022-09-26T17:24:01.292Z,18.89
2022-09-26T17:26:35.418Z,18.94
2022-09-26T17:29:17.255Z,18.88
2022-09-26T17:31:51.452Z,18.90
2022-09-26T17:34:26.685Z,18.91
2022-09-26T17:36:59.095Z,18.89
2022-09-26T17:39:31.503Z,18.90
2022-09-26T17:42:04.047Z,18.93
2022-09-26T17:44:36.506Z,18.88
2022-09-26T17:47:10.966Z,18.85
2022-09-26T17:49:47.663Z,18.96
2022-09-26T17:52:24.432Z,18.91
2022-09-26T17:55:00.770Z,18.88
2022-09-26T17:57:35.337Z,18.78
2022-09-26T18:00:15.144Z,18.69
2022-09-26T18:02:52.196Z,18.72
2022-09-26T18:05:27.755Z,18.68
2022-09-26T18:08:05.948Z,18.63
2022-09-26T18:10:42.327Z,18.65
2022-09-26T18:13:19.575Z,18.54
2022-09-26T18:15:52.644Z,18.63
2022-09-26T18:18:28.608Z,18.41
2022-09-26T18:21:03.263Z,18.47
2022-09-26T18:23:41.693Z,18.49
2022-09-26T18:26:25.638Z,18.38
2022-09-26T18:29:01.685Z,18.13
2022-09-26T18:31:38.061Z,18.19
2022-09-26T18:34:13.143Z,18.28
2022-09-26T18:36:46.184Z,17.74
2022-09-26T18:39:18.530Z,17.87
2022-09-26T18:41:55.670Z,17.60
2022-09-26T18:44:29.598Z,17.63
2022-09-26T18:47:05.151Z,17.64
2022-09-26T18:49:38.286Z,17.51
2022-09-26T18:52:14.390Z,17.54
2022-09-26T18:55:06.827Z,17.28
2022-09-26T18:58:02.682Z,17.21
2022-09-26T19:00:35.568Z,17.13
2022-09-26T19:03:08.070Z,16.82
2022-09-26T19:05:41.262Z,16.92
2022-09-26T19:08:27.967Z,16.82
2022-09-26T19:11:03.589Z,16.63
2022-09-26T19:13:35.995Z,16.60
2022-09-26T19:16:09.242Z,16.55
2022-09-26T19:18:42.063Z,16.50
2022-09-26T19:21:22.814Z,16.33
2022-09-26T19:23:56.140Z,16.25
2022-09-26T19:26:32.532Z,16.08
2022-09-26T19:29:11.803Z,16.07
2022-09-26T19:31:44.254Z,15.92
2022-09-26T19:34:18.725Z,15.98
2022-09-26T19:36:51.939Z,15.90
2022-09-26T19:39:24.365Z,15.69
2022-09-26T19:41:56.733Z,15.81
2022-09-26T19:44:29.046Z,15.80
2022-09-26T19:47:03.173Z,15.81
2022-09-26T19:49:35.566Z,15.81
2022-09-26T19:52:14.887Z,15.67
2022-09-26T19:54:47.266Z,15.59
2022-09-26T19:57:21.627Z,15.67
2022-09-26T19:59:53.994Z,15.59
2022-09-26T20:02:32.343Z,15.46
2022-09-26T20:05:13.399Z,15.42
2022-09-26T20:07:46.617Z,15.52
2022-09-26T20:10:20.944Z,15.60
2022-09-26T20:12:53.503Z,15.37
2022-09-26T20:15:25.955Z,15.36
2022-09-26T20:17:59.599Z,15.42
2022-09-26T20:20:32.015Z,15.50
2022-09-26T20:23:12.801Z,15.60
2022-09-26T20:25:45.809Z,15.69
2022-09-26T20:28:18.380Z,15.77
2022-09-26T20:30:55.867Z,15.81
2022-09-26T20:33:28.414Z,15.86
2022-09-26T20:36:04.086Z,15.84
2022-09-26T20:38:39.858Z,15.92
2022-09-26T20:41:18.447Z,15.90
2022-09-26T20:43:56.166Z,15.79
2022-09-26T20:46:32.787Z,15.93
2022-09-26T20:49:07.956Z,15.87
2022-09-26T20:51:40.587Z,15.91
2022-09-26T20:54:24.533Z,15.92
2022-09-26T20:56:58.205Z,15.89
2022-09-26T20:59:34.211Z,15.70
2022-09-26T21:02:25.431Z,15.70
2022-09-26T21:04:59.474Z,15.59
2022-09-26T21:07:32.606Z,15.73
2022-09-26T21:10:21.163Z,15.66
2022-09-26T21:12:53.659Z,15.82
2022-09-26T21:15:28.830Z,15.72
2022-09-26T21:18:01.752Z,15.75
2022-09-26T21:20:34.532Z,15.74
2022-09-26T21:23:13.418Z,15.77
2022-09-26T21:25:46.536Z,15.57
2022-09-26T21:28:25.522Z,15.53
2022-09-26T21:31:01.850Z,15.61
2022-09-26T21:33:34.389Z,15.54
2022-09-26T21:36:08.632Z,15.47
2022-09-26T21:38:41.333Z,15.29
2022-09-26T21:41:14.632Z,15.44
2022-09-26T21:43:50.850Z,15.39
2022-09-26T21:46:24.493Z,15.39
2022-09-26T21:48:56.959Z,15.43
2022-09-26T21:51:30.123Z,15.32
2022-09-26T21:54:06.719Z,15.34
2022-09-26T21:56:49.362Z,15.32
2022-09-26T21:59:23.434Z,15.22
2022-09-26T22:01:55.852Z,15.25
2022-09-26T22:04:28.494Z,15.26
2022-09-26T22:07:01.236Z,15.25
2022-09-26T22:09:33.633Z,15.18
2022-09-26T22:12:06.703Z,15.24
2022-09-26T22:14:39.099Z,15.33
2022-09-26T22:17:11.839Z,15.46
2022-09-26T22:19:44.535Z,15.34
2022-09-26T22:22:17.412Z,15.41
2022-09-26T22:24:49.800Z,15.49
2022-09-26T22:27:22.925Z,15.59
2022-09-26T22:29:55.357Z,15.51
2022-09-26T22:32:27.726Z,15.55
2022-09-26T22:35:00.053Z,15.48
2022-09-26T22:37:32.408Z,15.54
2022-09-26T22:40:06.085Z,15.50
2022-09-26T22:42:39.091Z,15.45
2022-09-26T22:45:11.464Z,15.35
2022-09-26T22:47:43.820Z,15.33
2022-09-26T22:50:16.334Z,15.21
2022-09-26T22:52:48.687Z,15.29
2022-09-26T22:55:21.100Z,15.36
2022-09-26T22:57:54.135Z,15.29
2022-09-26T23:00:26.698Z,15.11
2022-09-26T23:02:59.067Z,15.14
2022-09-26T23:05:31.426Z,15.18
2022-09-26T23:08:04.802Z,15.08
2022-09-26T23:10:37.403Z,15.07
2022-09-26T23:13:10.526Z,15.09
2022-09-26T23:15:43.310Z,15.06
2022-09-26T23:18:15.733Z,15.06
2022-09-26T23:20:48.372Z,14.92
2022-09-26T23:23:20.743Z,15.10
2022-09-26T23:25:53.118Z,14.89
2022-09-26T23:28:26.260Z,15.04
2022-09-26T23:31:04.856Z,15.20
2022-09-26T23:33:37.722Z,15.10
2022-09-26T23:36:10.827Z,15.13
2022-09-26T23:38:44.431Z,15.08
2022-09-26T23:41:16.865Z,15.15
2022-09-26T23:43:49.940Z,15.08
2022-09-26T23:46:22.322Z,15.03
2022-09-26T23:48:54.789Z,15.00
2022-09-26T23:51:27.171Z,15.11
2022-09-26T23:53:59.766Z,15.08
2022-09-26T23:56:32.178Z,15.11
2022-09-26T23:59:05.220Z,14.94
